首页
METAR-TAF:

METAR-TAF

机场 :

多特蒙德机场

多特蒙德, 德国

纬度: 51-31N, 经度: 007-37E, 海拔: 127米

当前天气观测

该预报发布于24分钟前的21:20 UTC
风速5节,风向
温度 1°C
湿度 51%
气压 1033 hPa
能见度10公里或以上

METAR: EDLW 292120Z AUTO 01005KT 9999 // NCD 01/M08 Q1033

时间: 23:44 (21:44 UTC)

预报

该预报发布于4小时和44分钟前的17:00 UTC
预报有效从29日的 18点(UTC)到 30日的 18点(UTC)
风速12节,风向北转东北
能见度10公里或以上
少量云层高于3000英尺
成为
从 29日的 20点(UTC)到 29日的 23点(UTC)
风速5节,风向北转东北
短暂存在
从 30日的 00点(UTC)到 30日的 06点(UTC)
风速3节,风向多变
成为
从 30日的 06点(UTC)到 30日的 09点(UTC)
风速7节,风向西转西北
几率 40% :
短暂存在
从 30日的 15点(UTC)到 30日的 18点(UTC)
多云层高于1400英尺, 塔状积云.
阵雨

TAF: EDLW 291700Z 2918/3018 02012KT 9999 FEW030 BECMG 2920/2923 03005KT TEMPO 3000/3006 VRB03KT BECMG 3006/3009 29007KT PROB40 TEMPO 3015/3018 SHRA BKN014TCU

超过4000个机场的气象观测和天气预报(METAR&TAF报告)。

可查询的气象台以黄色和红色小点在地图上表示。

将鼠标移到小点上方,可查看气象台名称。

然后点击查看天气观测和预报。

如需切换地图:点击带黑十字的绿色按钮放大地图;点击带横线的绿色按钮缩小地图;或者点击绿色箭头查看邻近地区的地图。


METAR-TAF: